Terminal Aerodrome Forecast
Issued by NWS

Home | Current Version | Previous Version | Text Only | Print | Product List | Glossary On
Versions: 1 2 3 4 5 6 7 8 9 10 11 12 13 14 15 16 17 18 19 20 21 22 23 24 25 26 27 28 29
266
FTUS44 KOUN 161128
TAFHBR
TAF
KHBR 161128Z 1612/1712 24007KT P6SM OVC008
      TEMPO 1612/1615 2SM BR OVC004
     FM161700 26011KT P6SM SCT025
     FM170500 34010KT P6SM SCT250
      TEMPO 1708/1712 4SM BR BKN015=

USA.gov is the U.S. government's official web portal to all federal, state and local government web resources and services.